sensor_id;sensor_type;location;lat;lon;timestamp;temperature;humidity
20700;DHT22;10511;51.232;9.420;2022-11-20T00:02:22;-3.30;99.90
20700;DHT22;10511;51.232;9.420;2022-11-20T00:04:49;-3.00;99.90
20700;DHT22;10511;51.232;9.420;2022-11-20T00:07:16;-2.80;99.90
20700;DHT22;10511;51.232;9.420;2022-11-20T00:09:43;-2.70;99.90
20700;DHT22;10511;51.232;9.420;2022-11-20T00:12:11;-2.70;99.90
20700;DHT22;10511;51.232;9.420;2022-11-20T00:14:38;-2.60;99.90
20700;DHT22;10511;51.232;9.420;2022-11-20T00:17:06;-2.50;99.90
20700;DHT22;10511;51.232;9.420;2022-11-20T00:19:33;-2.50;99.90
20700;DHT22;10511;51.232;9.420;2022-11-20T00:22:00;-2.50;99.90
20700;DHT22;10511;51.232;9.420;2022-11-20T00:24:27;-2.70;99.90
20700;DHT22;10511;51.232;9.420;2022-11-20T00:26:54;-3.10;99.90
20700;DHT22;10511;51.232;9.420;2022-11-20T00:29:23;-3.60;99.90
20700;DHT22;10511;51.232;9.420;2022-11-20T00:31:49;-3.80;99.90
20700;DHT22;10511;51.232;9.420;2022-11-20T00:34:16;-4.00;99.90
20700;DHT22;10511;51.232;9.420;2022-11-20T00:36:43;-4.00;99.90
20700;DHT22;10511;51.232;9.420;2022-11-20T00:39:10;-3.90;99.90
20700;DHT22;10511;51.232;9.420;2022-11-20T00:41:37;-3.70;99.90
20700;DHT22;10511;51.232;9.420;2022-11-20T00:44:04;-3.50;99.90
20700;DHT22;10511;51.232;9.420;2022-11-20T00:46:33;-3.40;99.90
20700;DHT22;10511;51.232;9.420;2022-11-20T00:49:00;-3.30;99.90
20700;DHT22;10511;51.232;9.420;2022-11-20T00:51:27;-3.20;99.90
20700;DHT22;10511;51.232;9.420;2022-11-20T00:53:56;-3.30;99.90
20700;DHT22;10511;51.232;9.420;2022-11-20T00:56:23;-3.60;99.90
20700;DHT22;10511;51.232;9.420;2022-11-20T00:58:50;-3.90;99.90
20700;DHT22;10511;51.232;9.420;2022-11-20T01:01:18;-4.10;99.90
20700;DHT22;10511;51.232;9.420;2022-11-20T01:03:48;-4.40;99.90
20700;DHT22;10511;51.232;9.420;2022-11-20T01:06:17;-4.40;99.90
20700;DHT22;10511;51.232;9.420;2022-11-20T01:08:45;-4.60;99.90
20700;DHT22;10511;51.232;9.420;2022-11-20T01:11:13;-4.70;99.90
20700;DHT22;10511;51.232;9.420;2022-11-20T01:13:41;-4.80;99.90
20700;DHT22;10511;51.232;9.420;2022-11-20T01:16:10;-4.90;99.90
20700;DHT22;10511;51.232;9.420;2022-11-20T01:18:40;-5.00;99.90
20700;DHT22;10511;51.232;9.420;2022-11-20T01:21:11;-5.00;99.90
20700;DHT22;10511;51.232;9.420;2022-11-20T01:23:41;-4.90;99.90
20700;DHT22;10511;51.232;9.420;2022-11-20T01:26:10;-4.70;99.90
20700;DHT22;10511;51.232;9.420;2022-11-20T01:28:38;-4.40;99.90
20700;DHT22;10511;51.232;9.420;2022-11-20T01:31:11;-4.00;99.90
20700;DHT22;10511;51.232;9.420;2022-11-20T01:33:39;-3.70;99.90
20700;DHT22;10511;51.232;9.420;2022-11-20T01:36:06;-3.60;99.90
20700;DHT22;10511;51.232;9.420;2022-11-20T01:38:35;-3.60;99.90
20700;DHT22;10511;51.232;9.420;2022-11-20T01:41:03;-4.00;99.90
20700;DHT22;10511;51.232;9.420;2022-11-20T01:43:30;-4.20;99.90
20700;DHT22;10511;51.232;9.420;2022-11-20T01:46:05;-4.20;99.90
20700;DHT22;10511;51.232;9.420;2022-11-20T01:48:36;-4.30;99.90
20700;DHT22;10511;51.232;9.420;2022-11-20T01:51:06;-4.20;99.90
20700;DHT22;10511;51.232;9.420;2022-11-20T01:53:37;-4.10;99.90
20700;DHT22;10511;51.232;9.420;2022-11-20T01:56:08;-4.20;99.90
20700;DHT22;10511;51.232;9.420;2022-11-20T01:58:39;-4.10;99.90
20700;DHT22;10511;51.232;9.420;2022-11-20T02:01:08;-3.90;99.90
20700;DHT22;10511;51.232;9.420;2022-11-20T02:03:36;-3.60;99.90
20700;DHT22;10511;51.232;9.420;2022-11-20T02:06:07;-3.60;99.90
20700;DHT22;10511;51.232;9.420;2022-11-20T02:08:38;-3.90;99.90
20700;DHT22;10511;51.232;9.420;2022-11-20T02:11:06;-4.10;99.90
20700;DHT22;10511;51.232;9.420;2022-11-20T02:13:33;-4.60;99.90
20700;DHT22;10511;51.232;9.420;2022-11-20T02:16:19;-4.70;99.90
20700;DHT22;10511;51.232;9.420;2022-11-20T02:18:47;-4.90;99.90
20700;DHT22;10511;51.232;9.420;2022-11-20T02:24:08;-4.90;99.90
20700;DHT22;10511;51.232;9.420;2022-11-20T02:26:44;-4.60;99.90
20700;DHT22;10511;51.232;9.420;2022-11-20T02:29:16;-4.30;99.90
20700;DHT22;10511;51.232;9.420;2022-11-20T02:31:45;-4.30;99.90
20700;DHT22;10511;51.232;9.420;2022-11-20T02:34:12;-4.40;99.90
20700;DHT22;10511;51.232;9.420;2022-11-20T02:36:41;-4.40;99.90
20700;DHT22;10511;51.232;9.420;2022-11-20T02:39:11;-4.40;99.90
20700;DHT22;10511;51.232;9.420;2022-11-20T02:41:42;-4.40;99.90
20700;DHT22;10511;51.232;9.420;2022-11-20T02:44:09;-4.60;99.90
20700;DHT22;10511;51.232;9.420;2022-11-20T02:46:36;-4.90;99.90
20700;DHT22;10511;51.232;9.420;2022-11-20T02:49:04;-5.00;99.90
20700;DHT22;10511;51.232;9.420;2022-11-20T02:51:32;-5.00;99.90
20700;DHT22;10511;51.232;9.420;2022-11-20T02:53:59;-4.90;99.90
20700;DHT22;10511;51.232;9.420;2022-11-20T02:56:27;-5.00;99.90
20700;DHT22;10511;51.232;9.420;2022-11-20T02:58:54;-4.90;99.90
20700;DHT22;10511;51.232;9.420;2022-11-20T03:01:21;-4.80;99.90
20700;DHT22;10511;51.232;9.420;2022-11-20T03:03:49;-4.60;99.90
20700;DHT22;10511;51.232;9.420;2022-11-20T03:06:16;-4.50;99.90
20700;DHT22;10511;51.232;9.420;2022-11-20T03:08:43;-4.30;99.90
20700;DHT22;10511;51.232;9.420;2022-11-20T03:11:10;-4.20;99.90
20700;DHT22;10511;51.232;9.420;2022-11-20T03:13:38;-4.10;99.90
20700;DHT22;10511;51.232;9.420;2022-11-20T03:16:07;-4.10;99.90
20700;DHT22;10511;51.232;9.420;2022-11-20T03:18:35;-3.90;99.90
20700;DHT22;10511;51.232;9.420;2022-11-20T03:21:02;-3.90;99.90
20700;DHT22;10511;51.232;9.420;2022-11-20T03:23:30;-3.80;99.90
20700;DHT22;10511;51.232;9.420;2022-11-20T03:26:08;-4.00;99.90
20700;DHT22;10511;51.232;9.420;2022-11-20T03:28:35;-4.10;99.90
20700;DHT22;10511;51.232;9.420;2022-11-20T03:31:07;-4.10;99.90
20700;DHT22;10511;51.232;9.420;2022-11-20T03:33:34;-4.10;99.90
20700;DHT22;10511;51.232;9.420;2022-11-20T03:36:03;-4.30;99.90
20700;DHT22;10511;51.232;9.420;2022-11-20T03:38:30;-4.50;99.90
20700;DHT22;10511;51.232;9.420;2022-11-20T03:41:01;-4.30;99.90
20700;DHT22;10511;51.232;9.420;2022-11-20T03:43:28;-4.30;99.90
20700;DHT22;10511;51.232;9.420;2022-11-20T03:45:56;-4.30;99.90
20700;DHT22;10511;51.232;9.420;2022-11-20T03:48:25;-4.10;99.90
20700;DHT22;10511;51.232;9.420;2022-11-20T03:50:52;-4.20;99.90
20700;DHT22;10511;51.232;9.420;2022-11-20T03:53:19;-4.20;99.90
20700;DHT22;10511;51.232;9.420;2022-11-20T03:55:51;-4.20;99.90
20700;DHT22;10511;51.232;9.420;2022-11-20T03:58:18;-4.40;99.90
20700;DHT22;10511;51.232;9.420;2022-11-20T04:00:45;-4.30;99.90
20700;DHT22;10511;51.232;9.420;2022-11-20T04:03:12;-4.30;99.90
20700;DHT22;10511;51.232;9.420;2022-11-20T04:05:40;-4.40;99.90
20700;DHT22;10511;51.232;9.420;2022-11-20T04:08:07;-4.30;99.90
20700;DHT22;10511;51.232;9.420;2022-11-20T04:10:34;-4.20;99.90
20700;DHT22;10511;51.232;9.420;2022-11-20T04:13:01;-4.10;99.90
20700;DHT22;10511;51.232;9.420;2022-11-20T04:15:28;-4.00;99.90
20700;DHT22;10511;51.232;9.420;2022-11-20T04:17:55;-3.90;99.90
20700;DHT22;10511;51.232;9.420;2022-11-20T04:20:22;-3.80;99.90
20700;DHT22;10511;51.232;9.420;2022-11-20T04:22:53;-3.90;99.90
20700;DHT22;10511;51.232;9.420;2022-11-20T04:25:20;-3.90;99.90
20700;DHT22;10511;51.232;9.420;2022-11-20T04:27:47;-3.80;99.90
20700;DHT22;10511;51.232;9.420;2022-11-20T04:30:14;-3.70;99.90
20700;DHT22;10511;51.232;9.420;2022-11-20T04:32:41;-3.70;99.90
20700;DHT22;10511;51.232;9.420;2022-11-20T04:35:08;-3.50;99.90
20700;DHT22;10511;51.232;9.420;2022-11-20T04:37:35;-3.40;99.90
20700;DHT22;10511;51.232;9.420;2022-11-20T04:40:04;-3.20;99.90
20700;DHT22;10511;51.232;9.420;2022-11-20T04:42:32;-3.10;99.90
20700;DHT22;10511;51.232;9.420;2022-11-20T04:44:59;-3.00;99.90
20700;DHT22;10511;51.232;9.420;2022-11-20T04:47:26;-3.20;99.90
20700;DHT22;10511;51.232;9.420;2022-11-20T04:49:53;-3.10;99.90
20700;DHT22;10511;51.232;9.420;2022-11-20T04:52:20;-3.30;99.90
20700;DHT22;10511;51.232;9.420;2022-11-20T04:54:47;-3.30;99.90
20700;DHT22;10511;51.232;9.420;2022-11-20T04:57:15;-3.30;99.90
20700;DHT22;10511;51.232;9.420;2022-11-20T04:59:42;-3.10;99.90
20700;DHT22;10511;51.232;9.420;2022-11-20T05:02:10;-3.00;99.90
20700;DHT22;10511;51.232;9.420;2022-11-20T05:04:37;-3.00;99.90
20700;DHT22;10511;51.232;9.420;2022-11-20T05:07:04;-3.10;99.90
20700;DHT22;10511;51.232;9.420;2022-11-20T05:09:31;-3.60;99.90
20700;DHT22;10511;51.232;9.420;2022-11-20T05:11:58;-3.90;99.90
20700;DHT22;10511;51.232;9.420;2022-11-20T05:14:26;-4.20;99.90
20700;DHT22;10511;51.232;9.420;2022-11-20T05:16:53;-4.30;99.90
20700;DHT22;10511;51.232;9.420;2022-11-20T05:19:20;-4.30;99.90
20700;DHT22;10511;51.232;9.420;2022-11-20T05:21:47;-4.10;99.90
20700;DHT22;10511;51.232;9.420;2022-11-20T05:24:14;-3.90;99.90
20700;DHT22;10511;51.232;9.420;2022-11-20T05:26:41;-3.80;99.90
20700;DHT22;10511;51.232;9.420;2022-11-20T05:29:10;-3.70;99.90
20700;DHT22;10511;51.232;9.420;2022-11-20T05:31:39;-3.60;99.90
20700;DHT22;10511;51.232;9.420;2022-11-20T05:34:06;-3.40;99.90
20700;DHT22;10511;51.232;9.420;2022-11-20T05:36:33;-3.40;99.90
20700;DHT22;10511;51.232;9.420;2022-11-20T05:39:01;-3.30;99.90
20700;DHT22;10511;51.232;9.420;2022-11-20T05:41:28;-3.10;99.90
20700;DHT22;10511;51.232;9.420;2022-11-20T05:43:56;-3.10;99.90
20700;DHT22;10511;51.232;9.420;2022-11-20T05:46:24;-3.30;99.90
20700;DHT22;10511;51.232;9.420;2022-11-20T05:48:52;-3.30;99.90
20700;DHT22;10511;51.232;9.420;2022-11-20T05:51:20;-3.40;99.90
20700;DHT22;10511;51.232;9.420;2022-11-20T05:53:47;-3.40;99.90
20700;DHT22;10511;51.232;9.420;2022-11-20T05:56:16;-3.40;99.90
20700;DHT22;10511;51.232;9.420;2022-11-20T05:58:44;-3.40;99.90
20700;DHT22;10511;51.232;9.420;2022-11-20T06:01:14;-3.60;99.90
20700;DHT22;10511;51.232;9.420;2022-11-20T06:03:41;-3.70;99.90
20700;DHT22;10511;51.232;9.420;2022-11-20T06:06:13;-3.70;99.90
20700;DHT22;10511;51.232;9.420;2022-11-20T06:08:40;-3.50;99.90
20700;DHT22;10511;51.232;9.420;2022-11-20T06:11:09;-3.30;99.90
20700;DHT22;10511;51.232;9.420;2022-11-20T06:13:36;-3.00;99.90
20700;DHT22;10511;51.232;9.420;2022-11-20T06:16:04;-3.00;99.90
20700;DHT22;10511;51.232;9.420;2022-11-20T06:18:32;-3.20;99.90
20700;DHT22;10511;51.232;9.420;2022-11-20T06:21:00;-3.50;99.90
20700;DHT22;10511;51.232;9.420;2022-11-20T06:23:30;-3.50;99.90
20700;DHT22;10511;51.232;9.420;2022-11-20T06:25:58;-3.30;99.90
20700;DHT22;10511;51.232;9.420;2022-11-20T06:28:25;-3.10;99.90
20700;DHT22;10511;51.232;9.420;2022-11-20T06:30:52;-3.10;99.90
20700;DHT22;10511;51.232;9.420;2022-11-20T06:33:19;-3.00;99.90
20700;DHT22;10511;51.232;9.420;2022-11-20T06:35:46;-3.00;99.90
20700;DHT22;10511;51.232;9.420;2022-11-20T06:38:13;-3.20;99.90
20700;DHT22;10511;51.232;9.420;2022-11-20T06:40:42;-3.30;99.90
20700;DHT22;10511;51.232;9.420;2022-11-20T06:43:09;-3.30;99.90
20700;DHT22;10511;51.232;9.420;2022-11-20T06:45:37;-3.40;99.90
20700;DHT22;10511;51.232;9.420;2022-11-20T06:48:04;-3.50;99.90
20700;DHT22;10511;51.232;9.420;2022-11-20T06:50:31;-3.30;99.90
20700;DHT22;10511;51.232;9.420;2022-11-20T06:53:01;-3.00;99.90
20700;DHT22;10511;51.232;9.420;2022-11-20T06:55:29;-3.00;99.90
20700;DHT22;10511;51.232;9.420;2022-11-20T06:57:57;-2.80;99.90
20700;DHT22;10511;51.232;9.420;2022-11-20T07:00:24;-2.60;99.90
20700;DHT22;10511;51.232;9.420;2022-11-20T07:02:51;-2.50;99.90
20700;DHT22;10511;51.232;9.420;2022-11-20T07:05:18;-2.40;99.90
20700;DHT22;10511;51.232;9.420;2022-11-20T07:07:45;-2.50;99.90
20700;DHT22;10511;51.232;9.420;2022-11-20T07:10:12;-2.60;99.90
20700;DHT22;10511;51.232;9.420;2022-11-20T07:12:39;-2.70;99.90
20700;DHT22;10511;51.232;9.420;2022-11-20T07:15:08;-2.80;99.90
20700;DHT22;10511;51.232;9.420;2022-11-20T07:17:35;-2.70;99.90
20700;DHT22;10511;51.232;9.420;2022-11-20T07:20:03;-2.60;99.90
20700;DHT22;10511;51.232;9.420;2022-11-20T07:22:30;-2.60;99.90
20700;DHT22;10511;51.232;9.420;2022-11-20T07:24:57;-2.50;99.90
20700;DHT22;10511;51.232;9.420;2022-11-20T07:27:24;-2.40;99.90
20700;DHT22;10511;51.232;9.420;2022-11-20T07:29:50;-2.30;99.90
20700;DHT22;10511;51.232;9.420;2022-11-20T07:32:19;-2.30;99.90
20700;DHT22;10511;51.232;9.420;2022-11-20T07:34:46;-2.60;99.90
20700;DHT22;10511;51.232;9.420;2022-11-20T07:37:13;-2.50;99.90
20700;DHT22;10511;51.232;9.420;2022-11-20T07:39:40;-2.50;99.90
20700;DHT22;10511;51.232;9.420;2022-11-20T07:42:08;-2.40;99.90
20700;DHT22;10511;51.232;9.420;2022-11-20T07:44:35;-2.40;99.90
20700;DHT22;10511;51.232;9.420;2022-11-20T07:47:02;-2.30;99.90
20700;DHT22;10511;51.232;9.420;2022-11-20T07:49:31;-2.40;99.90
20700;DHT22;10511;51.232;9.420;2022-11-20T07:51:58;-2.70;99.90
20700;DHT22;10511;51.232;9.420;2022-11-20T07:54:25;-3.00;99.90
20700;DHT22;10511;51.232;9.420;2022-11-20T07:56:54;-3.20;99.90
20700;DHT22;10511;51.232;9.420;2022-11-20T07:59:21;-3.20;99.90
20700;DHT22;10511;51.232;9.420;2022-11-20T08:01:48;-3.00;99.90
20700;DHT22;10511;51.232;9.420;2022-11-20T08:04:15;-2.70;99.90
20700;DHT22;10511;51.232;9.420;2022-11-20T08:06:44;-2.70;99.90
20700;DHT22;10511;51.232;9.420;2022-11-20T08:09:11;-2.80;99.90
20700;DHT22;10511;51.232;9.420;2022-11-20T08:11:38;-2.60;99.90
20700;DHT22;10511;51.232;9.420;2022-11-20T08:14:22;-2.60;99.90
20700;DHT22;10511;51.232;9.420;2022-11-20T08:16:49;-2.40;99.90
20700;DHT22;10511;51.232;9.420;2022-11-20T08:19:17;-2.50;99.90
20700;DHT22;10511;51.232;9.420;2022-11-20T08:21:46;-2.50;99.90
20700;DHT22;10511;51.232;9.420;2022-11-20T08:24:13;-2.60;99.90
20700;DHT22;10511;51.232;9.420;2022-11-20T08:26:41;-2.60;99.90
20700;DHT22;10511;51.232;9.420;2022-11-20T08:29:08;-2.70;99.90
20700;DHT22;10511;51.232;9.420;2022-11-20T08:31:35;-2.90;99.90
20700;DHT22;10511;51.232;9.420;2022-11-20T08:34:02;-2.90;99.90
20700;DHT22;10511;51.232;9.420;2022-11-20T08:36:32;-2.90;99.90
20700;DHT22;10511;51.232;9.420;2022-11-20T08:39:01;-2.80;99.90
20700;DHT22;10511;51.232;9.420;2022-11-20T08:41:29;-2.80;99.90
20700;DHT22;10511;51.232;9.420;2022-11-20T08:44:00;-2.80;99.90
20700;DHT22;10511;51.232;9.420;2022-11-20T08:46:30;-2.60;99.90
20700;DHT22;10511;51.232;9.420;2022-11-20T08:48:59;-2.50;99.90
20700;DHT22;10511;51.232;9.420;2022-11-20T08:51:26;-2.60;99.90
20700;DHT22;10511;51.232;9.420;2022-11-20T08:53:54;-2.60;99.90
20700;DHT22;10511;51.232;9.420;2022-11-20T08:56:24;-2.60;99.90
20700;DHT22;10511;51.232;9.420;2022-11-20T08:58:52;-2.40;99.90
20700;DHT22;10511;51.232;9.420;2022-11-20T09:01:20;-2.20;99.90
20700;DHT22;10511;51.232;9.420;2022-11-20T09:03:47;-2.10;99.90
20700;DHT22;10511;51.232;9.420;2022-11-20T09:06:15;-1.90;99.90
20700;DHT22;10511;51.232;9.420;2022-11-20T09:08:42;-1.90;99.90
20700;DHT22;10511;51.232;9.420;2022-11-20T09:11:09;-1.90;99.90
20700;DHT22;10511;51.232;9.420;2022-11-20T09:13:38;-1.80;99.90
20700;DHT22;10511;51.232;9.420;2022-11-20T09:16:07;-2.00;99.90
20700;DHT22;10511;51.232;9.420;2022-11-20T09:18:35;-2.20;99.90
20700;DHT22;10511;51.232;9.420;2022-11-20T09:21:04;-2.40;99.90
20700;DHT22;10511;51.232;9.420;2022-11-20T09:23:33;-2.50;99.90
20700;DHT22;10511;51.232;9.420;2022-11-20T09:26:02;-2.60;99.90
20700;DHT22;10511;51.232;9.420;2022-11-20T09:28:30;-2.70;99.90
20700;DHT22;10511;51.232;9.420;2022-11-20T09:30:58;-2.70;99.90
20700;DHT22;10511;51.232;9.420;2022-11-20T09:33:25;-2.80;99.90
20700;DHT22;10511;51.232;9.420;2022-11-20T09:35:52;-2.90;99.90
20700;DHT22;10511;51.232;9.420;2022-11-20T09:38:19;-2.80;99.90
20700;DHT22;10511;51.232;9.420;2022-11-20T09:40:51;-2.80;99.90
20700;DHT22;10511;51.232;9.420;2022-11-20T09:43:26;-2.80;99.90
20700;DHT22;10511;51.232;9.420;2022-11-20T09:46:04;-2.70;99.90
20700;DHT22;10511;51.232;9.420;2022-11-20T09:48:48;-2.60;99.90
20700;DHT22;10511;51.232;9.420;2022-11-20T09:51:26;-2.50;99.90
20700;DHT22;10511;51.232;9.420;2022-11-20T09:54:15;-2.50;99.90
20700;DHT22;10511;51.232;9.420;2022-11-20T09:56:45;-2.60;99.90
20700;DHT22;10511;51.232;9.420;2022-11-20T09:59:24;-2.60;99.90
20700;DHT22;10511;51.232;9.420;2022-11-20T10:01:55;-2.60;99.90
20700;DHT22;10511;51.232;9.420;2022-11-20T10:04:22;-2.70;99.90
20700;DHT22;10511;51.232;9.420;2022-11-20T10:06:56;-2.70;99.90
20700;DHT22;10511;51.232;9.420;2022-11-20T10:09:30;-2.70;99.90
20700;DHT22;10511;51.232;9.420;2022-11-20T10:12:09;-2.50;99.90
20700;DHT22;10511;51.232;9.420;2022-11-20T10:14:50;-2.50;99.90
20700;DHT22;10511;51.232;9.420;2022-11-20T10:17:31;-2.50;99.90
20700;DHT22;10511;51.232;9.420;2022-11-20T10:20:16;-2.50;99.90
20700;DHT22;10511;51.232;9.420;2022-11-20T10:22:54;-2.50;99.90
20700;DHT22;10511;51.232;9.420;2022-11-20T10:25:33;-2.50;99.90
20700;DHT22;10511;51.232;9.420;2022-11-20T10:28:12;-2.40;99.90
20700;DHT22;10511;51.232;9.420;2022-11-20T10:30:44;-2.20;99.90
20700;DHT22;10511;51.232;9.420;2022-11-20T10:33:17;-2.20;99.90
20700;DHT22;10511;51.232;9.420;2022-11-20T10:35:50;-2.20;99.90
20700;DHT22;10511;51.232;9.420;2022-11-20T10:38:23;-1.90;99.90
20700;DHT22;10511;51.232;9.420;2022-11-20T10:40:55;-1.90;99.90
20700;DHT22;10511;51.232;9.420;2022-11-20T10:43:45;-2.00;99.90
20700;DHT22;10511;51.232;9.420;2022-11-20T10:46:15;-2.00;99.90
20700;DHT22;10511;51.232;9.420;2022-11-20T10:48:44;-2.00;99.90
20700;DHT22;10511;51.232;9.420;2022-11-20T10:51:18;-2.10;99.90
20700;DHT22;10511;51.232;9.420;2022-11-20T10:53:57;-2.10;99.90
20700;DHT22;10511;51.232;9.420;2022-11-20T10:56:30;-2.00;99.90
20700;DHT22;10511;51.232;9.420;2022-11-20T10:59:29;-2.00;99.90
20700;DHT22;10511;51.232;9.420;2022-11-20T11:01:59;-2.10;99.90
20700;DHT22;10511;51.232;9.420;2022-11-20T11:04:37;-2.10;99.90
20700;DHT22;10511;51.232;9.420;2022-11-20T11:07:10;-2.10;99.90
20700;DHT22;10511;51.232;9.420;2022-11-20T11:09:41;-2.20;99.90
20700;DHT22;10511;51.232;9.420;2022-11-20T11:12:10;-2.20;99.90
20700;DHT22;10511;51.232;9.420;2022-11-20T11:14:48;-2.20;99.90
20700;DHT22;10511;51.232;9.420;2022-11-20T11:17:25;-2.00;99.90
20700;DHT22;10511;51.232;9.420;2022-11-20T11:20:06;-1.80;99.90
20700;DHT22;10511;51.232;9.420;2022-11-20T11:22:44;-1.70;99.90
20700;DHT22;10511;51.232;9.420;2022-11-20T11:25:24;-1.50;99.90
20700;DHT22;10511;51.232;9.420;2022-11-20T11:27:52;-1.40;99.90
20700;DHT22;10511;51.232;9.420;2022-11-20T11:30:20;-1.30;99.90
20700;DHT22;10511;51.232;9.420;2022-11-20T11:32:48;-1.00;99.90
20700;DHT22;10511;51.232;9.420;2022-11-20T11:35:27;-0.90;99.90
20700;DHT22;10511;51.232;9.420;2022-11-20T11:38:03;-1.10;99.90
20700;DHT22;10511;51.232;9.420;2022-11-20T11:40:32;-1.00;99.90
20700;DHT22;10511;51.232;9.420;2022-11-20T11:43:02;-0.90;99.90
20700;DHT22;10511;51.232;9.420;2022-11-20T11:45:30;-0.80;99.90
20700;DHT22;10511;51.232;9.420;2022-11-20T11:47:58;-0.70;99.90
20700;DHT22;10511;51.232;9.420;2022-11-20T11:50:27;-0.70;99.90
20700;DHT22;10511;51.232;9.420;2022-11-20T11:53:02;-0.70;99.90
20700;DHT22;10511;51.232;9.420;2022-11-20T11:55:36;-0.50;99.90
20700;DHT22;10511;51.232;9.420;2022-11-20T11:58:14;-0.20;99.90
20700;DHT22;10511;51.232;9.420;2022-11-20T12:00:50;0.00;99.90
20700;DHT22;10511;51.232;9.420;2022-11-20T12:03:21;0.00;99.90
20700;DHT22;10511;51.232;9.420;2022-11-20T12:05:55;0.10;99.90
20700;DHT22;10511;51.232;9.420;2022-11-20T12:08:25;0.20;99.90
20700;DHT22;10511;51.232;9.420;2022-11-20T12:10:57;0.40;99.90
20700;DHT22;10511;51.232;9.420;2022-11-20T12:13:47;0.60;99.90
20700;DHT22;10511;51.232;9.420;2022-11-20T12:16:17;0.50;99.90
20700;DHT22;10511;51.232;9.420;2022-11-20T12:18:46;0.30;99.90
20700;DHT22;10511;51.232;9.420;2022-11-20T12:21:33;0.30;99.90
20700;DHT22;10511;51.232;9.420;2022-11-20T12:24:13;0.40;99.90
20700;DHT22;10511;51.232;9.420;2022-11-20T12:26:53;0.50;99.90
20700;DHT22;10511;51.232;9.420;2022-11-20T12:29:29;0.40;99.90
20700;DHT22;10511;51.232;9.420;2022-11-20T12:32:17;0.40;99.90
20700;DHT22;10511;51.232;9.420;2022-11-20T12:34:56;0.40;99.90
20700;DHT22;10511;51.232;9.420;2022-11-20T12:37:38;0.40;99.90
20700;DHT22;10511;51.232;9.420;2022-11-20T12:40:24;0.60;99.90
20700;DHT22;10511;51.232;9.420;2022-11-20T12:43:00;0.60;99.90
20700;DHT22;10511;51.232;9.420;2022-11-20T12:45:54;0.70;99.90
20700;DHT22;10511;51.232;9.420;2022-11-20T12:48:37;0.70;99.90
20700;DHT22;10511;51.232;9.420;2022-11-20T12:51:21;0.70;99.90
20700;DHT22;10511;51.232;9.420;2022-11-20T12:53:59;0.60;99.90
20700;DHT22;10511;51.232;9.420;2022-11-20T12:56:35;0.60;99.90
20700;DHT22;10511;51.232;9.420;2022-11-20T12:59:23;0.50;99.90
20700;DHT22;10511;51.232;9.420;2022-11-20T13:01:59;0.50;99.90
20700;DHT22;10511;51.232;9.420;2022-11-20T13:07:33;0.50;99.90
20700;DHT22;10511;51.232;9.420;2022-11-20T13:10:04;0.40;99.90
20700;DHT22;10511;51.232;9.420;2022-11-20T13:12:36;0.40;99.90
20700;DHT22;10511;51.232;9.420;2022-11-20T13:15:29;0.30;99.90
20700;DHT22;10511;51.232;9.420;2022-11-20T13:18:03;0.30;99.90
20700;DHT22;10511;51.232;9.420;2022-11-20T13:20:31;0.80;99.90
20700;DHT22;10511;51.232;9.420;2022-11-20T13:22:59;1.10;99.90
20700;DHT22;10511;51.232;9.420;2022-11-20T13:25:30;2.00;99.90
20700;DHT22;10511;51.232;9.420;2022-11-20T13:27:59;1.50;99.90
20700;DHT22;10511;51.232;9.420;2022-11-20T13:30:28;1.70;99.90
20700;DHT22;10511;51.232;9.420;2022-11-20T13:32:57;1.80;99.90
20700;DHT22;10511;51.232;9.420;2022-11-20T13:35:29;1.50;99.90
20700;DHT22;10511;51.232;9.420;2022-11-20T13:38:05;1.50;99.90
20700;DHT22;10511;51.232;9.420;2022-11-20T13:40:36;1.40;99.90
20700;DHT22;10511;51.232;9.420;2022-11-20T13:43:20;1.50;99.90
20700;DHT22;10511;51.232;9.420;2022-11-20T13:45:56;2.30;99.90
20700;DHT22;10511;51.232;9.420;2022-11-20T13:48:25;2.70;99.90
20700;DHT22;10511;51.232;9.420;2022-11-20T13:51:07;3.00;99.90
20700;DHT22;10511;51.232;9.420;2022-11-20T13:53:52;3.30;99.90
20700;DHT22;10511;51.232;9.420;2022-11-20T13:56:34;4.40;99.90
20700;DHT22;10511;51.232;9.420;2022-11-20T13:59:07;4.10;99.90
20700;DHT22;10511;51.232;9.420;2022-11-20T14:01:35;3.40;99.90
20700;DHT22;10511;51.232;9.420;2022-11-20T14:04:08;3.40;99.90
20700;DHT22;10511;51.232;9.420;2022-11-20T14:06:41;3.80;99.90
20700;DHT22;10511;51.232;9.420;2022-11-20T14:09:11;4.20;99.90
20700;DHT22;10511;51.232;9.420;2022-11-20T14:11:46;4.40;99.90
20700;DHT22;10511;51.232;9.420;2022-11-20T14:14:15;4.30;99.90
20700;DHT22;10511;51.232;9.420;2022-11-20T14:16:42;4.10;99.90
20700;DHT22;10511;51.232;9.420;2022-11-20T14:19:28;3.80;99.90
20700;DHT22;10511;51.232;9.420;2022-11-20T14:22:08;3.40;99.90
20700;DHT22;10511;51.232;9.420;2022-11-20T14:24:36;3.00;99.90
20700;DHT22;10511;51.232;9.420;2022-11-20T14:27:09;2.60;99.90
20700;DHT22;10511;51.232;9.420;2022-11-20T14:29:38;2.50;99.90
20700;DHT22;10511;51.232;9.420;2022-11-20T14:32:06;2.30;99.90
20700;DHT22;10511;51.232;9.420;2022-11-20T14:34:38;2.10;99.90
20700;DHT22;10511;51.232;9.420;2022-11-20T14:37:10;1.90;99.90
20700;DHT22;10511;51.232;9.420;2022-11-20T14:39:41;1.80;99.90
20700;DHT22;10511;51.232;9.420;2022-11-20T14:42:17;1.70;99.90
20700;DHT22;10511;51.232;9.420;2022-11-20T14:44:44;1.60;99.90
20700;DHT22;10511;51.232;9.420;2022-11-20T14:47:13;1.40;99.90
20700;DHT22;10511;51.232;9.420;2022-11-20T14:49:41;1.30;99.90
20700;DHT22;10511;51.232;9.420;2022-11-20T14:52:13;1.20;99.90
20700;DHT22;10511;51.232;9.420;2022-11-20T14:54:45;1.10;99.90
20700;DHT22;10511;51.232;9.420;2022-11-20T14:57:23;0.90;99.90
20700;DHT22;10511;51.232;9.420;2022-11-20T14:59:51;0.90;99.90
20700;DHT22;10511;51.232;9.420;2022-11-20T15:02:21;0.90;99.90
20700;DHT22;10511;51.232;9.420;2022-11-20T15:04:50;0.80;99.90
20700;DHT22;10511;51.232;9.420;2022-11-20T15:07:25;0.80;99.90
20700;DHT22;10511;51.232;9.420;2022-11-20T15:10:03;0.60;99.90
20700;DHT22;10511;51.232;9.420;2022-11-20T15:12:33;0.60;99.90
20700;DHT22;10511;51.232;9.420;2022-11-20T15:15:01;0.50;99.90
20700;DHT22;10511;51.232;9.420;2022-11-20T15:17:29;0.50;99.90
20700;DHT22;10511;51.232;9.420;2022-11-20T15:19:57;0.70;99.90
20700;DHT22;10511;51.232;9.420;2022-11-20T15:22:24;0.70;99.90
20700;DHT22;10511;51.232;9.420;2022-11-20T15:24:51;0.60;99.90
20700;DHT22;10511;51.232;9.420;2022-11-20T15:27:18;0.60;99.90
20700;DHT22;10511;51.232;9.420;2022-11-20T15:29:46;0.50;99.90
20700;DHT22;10511;51.232;9.420;2022-11-20T15:32:13;0.50;99.90
20700;DHT22;10511;51.232;9.420;2022-11-20T15:34:40;0.50;99.90
20700;DHT22;10511;51.232;9.420;2022-11-20T15:37:07;0.50;99.90
20700;DHT22;10511;51.232;9.420;2022-11-20T15:39:34;0.50;99.90
20700;DHT22;10511;51.232;9.420;2022-11-20T15:42:01;0.50;99.90
20700;DHT22;10511;51.232;9.420;2022-11-20T15:44:28;0.50;99.90
20700;DHT22;10511;51.232;9.420;2022-11-20T15:46:57;0.70;99.90
20700;DHT22;10511;51.232;9.420;2022-11-20T15:49:24;0.60;99.90
20700;DHT22;10511;51.232;9.420;2022-11-20T15:51:51;0.50;99.90
20700;DHT22;10511;51.232;9.420;2022-11-20T15:54:21;0.60;99.90
20700;DHT22;10511;51.232;9.420;2022-11-20T15:56:48;0.50;99.90
20700;DHT22;10511;51.232;9.420;2022-11-20T15:59:18;0.60;99.90
20700;DHT22;10511;51.232;9.420;2022-11-20T16:01:45;0.60;99.90